createdAt,value
2023-09-03T00:00:48.272Z,14.06
2023-09-03T00:01:47.605Z,14.57
2023-09-03T00:02:48.335Z,14.76
2023-09-03T00:03:47.581Z,14.66
2023-09-03T00:04:47.411Z,14.16
2023-09-03T00:05:47.450Z,14.26
2023-09-03T00:06:48.333Z,14.06
2023-09-03T00:07:47.371Z,14.67
2023-09-03T00:08:47.428Z,13.96
2023-09-03T00:09:56.796Z,14.06
2023-09-03T00:11:11.329Z,13.87
2023-09-03T00:12:00.421Z,13.76
2023-09-03T00:12:47.084Z,14.98
2023-09-03T00:13:47.139Z,14.37
2023-09-03T00:14:47.023Z,14.67
2023-09-03T00:15:47.144Z,14.27
2023-09-03T00:16:47.159Z,14.67
2023-09-03T00:17:47.048Z,14.17
2023-09-03T00:18:47.009Z,14.67
2023-09-03T00:19:46.833Z,14.37
2023-09-03T00:20:46.920Z,14.17
2023-09-03T00:21:46.789Z,15.18
2023-09-03T00:22:46.734Z,14.27
2023-09-03T00:23:46.693Z,14.47
2023-09-03T00:24:46.697Z,14.47
2023-09-03T00:25:46.657Z,14.47
2023-09-03T00:26:46.624Z,14.67
2023-09-03T00:27:46.525Z,13.76
2023-09-03T00:28:46.588Z,14.67
2023-09-03T00:29:46.595Z,14.17
2023-09-03T00:30:46.459Z,14.47
2023-09-03T00:31:46.423Z,14.37
2023-09-03T00:32:46.399Z,14.07
2023-09-03T00:33:46.323Z,14.47
2023-09-03T00:34:46.265Z,13.46
2023-09-03T00:35:47.027Z,13.46
2023-09-03T00:36:46.193Z,13.25
2023-09-03T00:37:46.212Z,13.45
2023-09-03T00:38:46.141Z,12.95
2023-09-03T00:39:46.106Z,12.65
2023-09-03T00:40:46.057Z,13.05
2023-09-03T00:41:45.988Z,12.74
2023-09-03T00:42:46.006Z,12.45
2023-09-03T00:43:45.990Z,12.95
2023-09-03T00:44:50.425Z,13.25
2023-09-03T00:45:45.908Z,12.54
2023-09-03T00:46:45.849Z,12.55
2023-09-03T00:47:45.894Z,12.55
2023-09-03T00:48:45.729Z,12.75
2023-09-03T00:49:45.691Z,12.24
2023-09-03T00:50:45.751Z,12.24
2023-09-03T00:51:47.422Z,12.45
2023-09-03T00:52:45.644Z,12.54
2023-09-03T00:53:45.639Z,12.04
2023-09-03T00:54:46.461Z,13.16
2023-09-03T00:55:45.513Z,13.06
2023-09-03T00:56:45.436Z,13.26
2023-09-03T00:57:45.429Z,13.06
2023-09-03T00:58:45.410Z,13.06
2023-09-03T00:59:45.343Z,13.16
2023-09-03T01:00:45.288Z,12.75
2023-09-03T01:01:46.019Z,12.85
2023-09-03T01:02:45.999Z,13.96
2023-09-03T01:03:45.261Z,12.75
2023-09-03T01:04:45.161Z,13.06
2023-09-03T01:05:45.458Z,12.76
2023-09-03T01:06:45.102Z,13.06
2023-09-03T01:07:45.047Z,14.07
2023-09-03T01:08:44.981Z,12.76
2023-09-03T01:09:46.967Z,12.76
2023-09-03T01:10:44.910Z,13.37
2023-09-03T01:11:44.873Z,12.46
2023-09-03T01:12:44.859Z,12.76
2023-09-03T01:13:44.851Z,12.15
2023-09-03T01:14:44.748Z,12.15
2023-09-03T01:15:44.811Z,12.25
2023-09-03T01:16:44.680Z,12.15
2023-09-03T01:17:44.645Z,13.17
2023-09-03T01:18:44.626Z,12.35
2023-09-03T01:19:44.646Z,13.17
2023-09-03T01:20:44.721Z,12.87
2023-09-03T01:21:45.448Z,12.55
2023-09-03T01:25:39.267Z,13.16
2023-09-03T01:26:37.308Z,11.13
2023-09-03T01:27:40.463Z,11.54
2023-09-03T01:30:11.203Z,11.74
2023-09-03T01:31:11.273Z,11.74
2023-09-03T01:32:10.712Z,10.72
2023-09-03T01:33:10.645Z,10.52
2023-09-03T01:34:10.622Z,10.61
2023-09-03T01:35:10.604Z,10.31
2023-09-03T01:36:10.692Z,10.52
2023-09-03T01:37:10.717Z,10.31
2023-09-03T01:38:11.341Z,10.11
2023-09-03T01:39:10.474Z,10.31
2023-09-03T01:40:10.425Z,9.61
2023-09-03T01:41:10.435Z,10.41
2023-09-03T01:42:10.381Z,10.52
2023-09-03T01:43:10.332Z,11.03
2023-09-03T01:44:10.260Z,9.61
2023-09-03T01:45:10.736Z,11.12
2023-09-03T01:46:10.285Z,10.21
2023-09-03T01:47:10.155Z,10.52
2023-09-03T01:48:10.199Z,9.91
2023-09-03T01:49:10.176Z,9.71
2023-09-03T01:50:10.017Z,10.61
2023-09-03T01:51:12.316Z,10.42
2023-09-03T01:52:09.961Z,9.51
2023-09-03T01:53:09.913Z,9.41
2023-09-03T01:54:09.879Z,9.61
2023-09-03T01:55:09.856Z,10.82
2023-09-03T01:56:11.740Z,10.32
2023-09-03T01:57:09.813Z,11.43
2023-09-03T01:58:09.780Z,10.82
2023-09-03T01:59:09.683Z,11.54
2023-09-03T02:00:09.650Z,10.32
2023-09-03T02:01:09.634Z,10.52
2023-09-03T02:02:09.650Z,11.44
2023-09-03T02:03:09.542Z,11.54
2023-09-03T02:04:09.474Z,11.44
2023-09-03T02:05:09.541Z,10.73
2023-09-03T02:06:09.534Z,11.04
2023-09-03T02:07:09.511Z,10.83
2023-09-03T02:08:10.258Z,12.46
2023-09-03T02:09:09.286Z,10.43
2023-09-03T02:10:09.300Z,11.34
2023-09-03T02:11:09.361Z,11.14
2023-09-03T02:12:09.183Z,11.14
2023-09-03T02:13:09.213Z,10.63
2023-09-03T02:14:09.086Z,11.24
2023-09-03T02:15:09.080Z,11.14
2023-09-03T02:16:09.064Z,11.44
2023-09-03T02:17:18.329Z,12.86
2023-09-03T02:18:08.968Z,12.25
2023-09-03T02:19:08.899Z,11.14
2023-09-03T02:20:08.915Z,12.35
2023-09-03T02:21:27.332Z,11.04
2023-09-03T02:22:08.779Z,11.15
2023-09-03T02:23:09.286Z,12.05
2023-09-03T02:24:08.813Z,10.94
2023-09-03T02:25:08.717Z,11.24
2023-09-03T02:26:09.356Z,11.15
2023-09-03T02:27:08.618Z,12.25
2023-09-03T02:28:08.672Z,12.26
2023-09-03T02:31:02.715Z,11.15
2023-09-03T02:31:49.697Z,11.55
2023-09-03T02:32:48.557Z,11.65
2023-09-03T02:33:48.611Z,10.94
2023-09-03T02:34:48.449Z,10.84
2023-09-03T02:35:48.465Z,10.84
2023-09-03T02:36:50.331Z,10.94
2023-09-03T02:37:48.477Z,11.15
2023-09-03T02:38:48.365Z,11.04
2023-09-03T02:39:48.318Z,11.04
2023-09-03T02:40:48.292Z,11.05
2023-09-03T02:41:48.216Z,10.94
2023-09-03T02:42:48.266Z,10.74
2023-09-03T02:43:48.286Z,10.94
2023-09-03T02:44:48.152Z,11.66
2023-09-03T02:45:48.263Z,11.05
2023-09-03T02:46:48.037Z,11.15
2023-09-03T02:47:48.021Z,11.04
2023-09-03T02:48:47.982Z,12.46
2023-09-03T02:49:47.954Z,10.74
2023-09-03T02:50:48.753Z,12.16
2023-09-03T02:51:47.858Z,11.76
2023-09-03T02:52:47.802Z,10.75
2023-09-03T02:53:47.756Z,11.56
2023-09-03T02:54:47.740Z,11.76
2023-09-03T02:55:47.729Z,11.96
2023-09-03T02:56:47.785Z,10.44
2023-09-03T02:57:47.682Z,11.86
2023-09-03T02:58:47.678Z,10.55
2023-09-03T02:59:47.527Z,10.74
2023-09-03T03:00:47.495Z,11.87
2023-09-03T03:01:47.520Z,12.07
2023-09-03T03:02:47.434Z,11.46
2023-09-03T03:03:50.227Z,10.64
2023-09-03T03:04:47.514Z,11.87
2023-09-03T03:05:47.375Z,11.66
2023-09-03T03:06:47.371Z,11.26
2023-09-03T03:07:47.275Z,11.56
2023-09-03T03:08:47.202Z,11.16
2023-09-03T03:09:47.182Z,12.37
2023-09-03T03:10:47.727Z,11.46
2023-09-03T03:11:47.191Z,11.46
2023-09-03T03:12:47.014Z,11.15
2023-09-03T03:13:47.026Z,11.46
2023-09-03T03:14:46.966Z,11.66
2023-09-03T03:15:46.959Z,11.66
2023-09-03T03:16:46.920Z,11.36
2023-09-03T03:17:46.893Z,12.38
2023-09-03T03:18:46.820Z,12.17
2023-09-03T03:19:46.783Z,12.58
2023-09-03T03:20:46.734Z,11.16
2023-09-03T03:21:46.694Z,11.67
2023-09-03T03:22:48.246Z,12.18
2023-09-03T03:23:46.741Z,11.06
2023-09-03T03:24:46.626Z,12.27
2023-09-03T03:25:46.694Z,12.38
2023-09-03T03:26:46.666Z,11.36
2023-09-03T03:27:46.603Z,11.16
2023-09-03T03:28:46.461Z,11.16
2023-09-03T03:29:46.389Z,12.27
2023-09-03T03:30:46.338Z,12.07
2023-09-03T03:31:47.404Z,11.46
2023-09-03T03:32:47.276Z,11.26
2023-09-03T03:33:46.292Z,11.06
2023-09-03T03:34:46.180Z,11.67
2023-09-03T03:35:46.162Z,11.16
2023-09-03T03:36:46.131Z,12.69
2023-09-03T03:37:46.159Z,11.27
2023-09-03T03:38:46.087Z,11.67
2023-09-03T03:39:46.718Z,11.47
2023-09-03T03:40:45.923Z,11.67
2023-09-03T03:41:45.925Z,11.57
2023-09-03T03:42:45.875Z,11.67
2023-09-03T03:43:45.873Z,11.37
2023-09-03T03:44:45.830Z,12.38
2023-09-03T03:45:46.797Z,11.58
2023-09-03T03:46:47.258Z,11.57
2023-09-03T03:47:45.776Z,11.37
2023-09-03T03:48:45.745Z,11.57
2023-09-03T03:49:45.633Z,12.08
2023-09-03T03:50:45.560Z,11.88
2023-09-03T03:51:45.528Z,11.06
2023-09-03T03:52:45.461Z,11.57
2023-09-03T03:53:45.475Z,11.57
2023-09-03T03:54:45.401Z,12.28
2023-09-03T03:55:45.348Z,11.57
2023-09-03T03:56:45.329Z,12.08
2023-09-03T03:57:45.431Z,12.28
2023-09-03T03:58:45.718Z,11.26
2023-09-03T03:59:45.210Z,10.55
2023-09-03T04:00:46.172Z,10.13
2023-09-03T04:01:45.208Z,9.63
2023-09-03T04:02:46.890Z,9.83
2023-09-03T04:03:45.225Z,9.83
2023-09-03T04:04:45.017Z,9.32
2023-09-03T04:05:44.998Z,9.11
2023-09-03T04:06:44.957Z,9.72
2023-09-03T04:07:44.902Z,9.62
2023-09-03T04:08:45.174Z,9.72
2023-09-03T04:09:44.807Z,9.42
2023-09-03T04:10:44.789Z,9.62
2023-09-03T04:11:44.768Z,7.49
2023-09-03T04:12:44.730Z,9.72
2023-09-03T04:13:44.680Z,8.81
2023-09-03T04:14:44.623Z,8.81
2023-09-03T04:15:44.652Z,9.42
2023-09-03T04:16:44.624Z,8.81
2023-09-03T04:17:46.150Z,8.50
2023-09-03T04:18:44.506Z,8.40
2023-09-03T04:19:44.513Z,8.31
2023-09-03T04:20:44.458Z,8.71
2023-09-03T04:21:44.368Z,8.30
2023-09-03T04:22:46.272Z,8.40
2023-09-03T04:23:44.299Z,7.79
2023-09-03T04:24:44.323Z,8.71
2023-09-03T04:25:44.724Z,7.59
2023-09-03T04:26:44.686Z,8.61
2023-09-03T04:27:44.728Z,8.10
2023-09-03T04:28:44.197Z,7.70
2023-09-03T04:29:44.049Z,8.20
2023-09-03T04:30:44.093Z,8.20
2023-09-03T04:31:44.046Z,8.00
2023-09-03T04:32:45.274Z,8.30
2023-09-03T04:33:44.697Z,8.30
2023-09-03T04:34:43.931Z,8.40
2023-09-03T04:35:43.848Z,8.00
2023-09-03T04:36:44.778Z,7.70
2023-09-03T04:37:44.779Z,7.70
2023-09-03T04:38:44.752Z,8.40
2023-09-03T04:39:43.740Z,7.59
2023-09-03T04:40:43.671Z,8.30
2023-09-03T04:41:44.223Z,8.10
2023-09-03T04:42:43.679Z,8.10
2023-09-03T04:43:44.263Z,7.49
2023-09-03T04:44:43.460Z,7.70
2023-09-03T04:45:43.453Z,7.19
2023-09-03T04:46:43.486Z,7.70
2023-09-03T04:47:43.416Z,8.30
2023-09-03T04:48:53.060Z,8.30
2023-09-03T04:49:52.806Z,8.30
2023-09-03T04:51:05.280Z,8.40
2023-09-03T04:51:43.202Z,8.20
2023-09-03T04:52:43.141Z,7.79
2023-09-03T04:53:43.135Z,8.30
2023-09-03T04:54:43.070Z,8.10
2023-09-03T04:55:43.036Z,8.10
2023-09-03T04:56:42.990Z,7.39
2023-09-03T04:57:42.970Z,7.70
2023-09-03T04:58:43.469Z,7.29
2023-09-03T04:59:42.901Z,7.70
2023-09-03T05:00:42.855Z,7.09
2023-09-03T05:01:42.842Z,7.49
2023-09-03T05:02:42.823Z,6.98
2023-09-03T05:03:42.872Z,6.78
2023-09-03T05:04:42.684Z,7.09
2023-09-03T05:05:42.685Z,6.98
2023-09-03T05:06:42.652Z,7.39
2023-09-03T05:07:42.628Z,6.48
2023-09-03T05:08:42.536Z,7.49
2023-09-03T05:09:42.500Z,5.97
2023-09-03T05:10:42.461Z,6.68
2023-09-03T05:11:42.450Z,7.29
2023-09-03T05:12:42.382Z,6.78
2023-09-03T05:13:42.362Z,6.37
2023-09-03T05:14:42.308Z,6.48
2023-09-03T05:15:42.279Z,6.27
2023-09-03T05:16:42.283Z,6.68
2023-09-03T05:17:42.248Z,6.37
2023-09-03T05:18:42.159Z,6.07
2023-09-03T05:19:42.124Z,6.37
2023-09-03T05:20:42.074Z,6.88
2023-09-03T05:21:42.061Z,5.97
2023-09-03T05:22:42.004Z,6.48
2023-09-03T05:23:41.973Z,6.37
2023-09-03T05:24:41.927Z,5.97
2023-09-03T05:25:41.891Z,6.27
2023-09-03T05:26:41.865Z,6.37
2023-09-03T05:27:41.844Z,5.97
2023-09-03T05:28:41.781Z,5.66
2023-09-03T05:29:41.789Z,5.76
2023-09-03T05:30:41.701Z,5.46
2023-09-03T05:31:41.734Z,5.87
2023-09-03T05:32:41.671Z,5.46
2023-09-03T05:33:41.594Z,5.46
2023-09-03T05:34:41.553Z,5.26
2023-09-03T05:35:41.520Z,5.46
2023-09-03T05:36:41.493Z,4.96
2023-09-03T05:37:41.441Z,4.45
2023-09-03T05:38:41.407Z,4.65
2023-09-03T05:39:41.386Z,5.05
2023-09-03T05:40:41.323Z,4.86
2023-09-03T05:41:41.314Z,4.75
2023-09-03T05:42:41.259Z,4.65
2023-09-03T05:43:41.210Z,4.96
2023-09-03T05:44:41.174Z,4.85
2023-09-03T05:45:41.178Z,4.35
2023-09-03T05:46:41.117Z,4.65
2023-09-03T05:47:41.106Z,4.65
2023-09-03T05:48:41.029Z,4.14
2023-09-03T05:49:40.992Z,4.05
2023-09-03T05:50:40.951Z,4.55
2023-09-03T05:51:40.917Z,4.55
2023-09-03T05:52:40.880Z,4.45
2023-09-03T05:53:40.865Z,4.15
2023-09-03T05:54:40.816Z,5.16
2023-09-03T05:55:40.990Z,4.35
2023-09-03T05:56:40.732Z,4.55
2023-09-03T05:57:40.692Z,4.35
2023-09-03T05:58:40.649Z,3.94
2023-09-03T05:59:40.644Z,3.94
2023-09-03T06:00:43.451Z,4.14
2023-09-03T06:01:40.586Z,4.14
2023-09-03T06:02:40.508Z,4.35
2023-09-03T06:03:40.534Z,3.53
2023-09-03T06:04:40.424Z,2.73
2023-09-03T06:05:40.484Z,3.64
2023-09-03T06:06:40.352Z,2.62
2023-09-03T06:07:40.352Z,3.34
2023-09-03T06:08:40.336Z,2.53
2023-09-03T06:09:40.266Z,2.42
2023-09-03T06:10:40.203Z,2.83
2023-09-03T06:11:40.173Z,2.12
2023-09-03T06:12:40.121Z,2.02
2023-09-03T06:13:40.116Z,2.22
2023-09-03T06:14:41.083Z,2.62
2023-09-03T06:15:40.032Z,2.22
2023-09-03T06:16:39.991Z,2.22
2023-09-03T06:17:39.962Z,2.02
2023-09-03T06:18:39.999Z,2.22
2023-09-03T06:19:39.900Z,2.12
2023-09-03T06:20:39.838Z,2.22
2023-09-03T06:21:39.800Z,2.02
2023-09-03T06:22:39.754Z,2.42
2023-09-03T06:23:39.741Z,2.12
2023-09-03T06:24:39.684Z,2.42
2023-09-03T06:25:39.662Z,2.12
2023-09-03T06:26:39.607Z,1.11
2023-09-03T06:27:39.586Z,1.82
2023-09-03T06:28:39.535Z,1.11
2023-09-03T06:29:48.062Z,1.11
2023-09-03T06:30:39.463Z,2.02
2023-09-03T06:31:39.471Z,1.11
2023-09-03T06:32:39.406Z,0.70
2023-09-03T06:33:39.342Z,0.20
2023-09-03T06:34:39.310Z,0.60
2023-09-03T06:35:39.294Z,0.70
2023-09-03T06:36:39.230Z,0.10
2023-09-03T06:37:39.205Z,1.01
2023-09-03T06:38:39.171Z,1.31
2023-09-03T06:39:39.126Z,0.50
2023-09-03T06:40:39.100Z,0.50
2023-09-03T06:41:39.073Z,0.60
2023-09-03T06:42:39.018Z,0.00
2023-09-03T06:43:38.976Z,0.81
2023-09-03T06:44:38.965Z,0.40
2023-09-03T06:45:38.920Z,1.31
2023-09-03T06:46:38.951Z,0.90
2023-09-03T06:47:38.963Z,0.70
2023-09-03T06:48:38.790Z,0.30
2023-09-03T06:49:38.768Z,0.60
2023-09-03T06:50:38.744Z,2.42
2023-09-03T06:51:38.684Z,1.01
2023-09-03T06:52:38.649Z,3.73
2023-09-03T06:53:38.625Z,7.46
2023-09-03T06:54:38.574Z,7.67
2023-09-03T06:55:38.547Z,9.59
2023-09-03T06:56:38.517Z,8.28
2023-09-03T06:57:38.464Z,7.37
2023-09-03T06:58:38.438Z,6.56
2023-09-03T06:59:38.427Z,6.86
2023-09-03T07:00:38.393Z,6.15
2023-09-03T07:01:38.382Z,4.94
2023-09-03T07:02:38.314Z,5.75
2023-09-03T07:03:38.315Z,4.33
2023-09-03T07:04:38.218Z,5.65
2023-09-03T07:05:38.206Z,6.15
2023-09-03T07:06:38.142Z,7.26
2023-09-03T07:08:13.964Z,12.60
2023-09-03T07:08:38.082Z,8.57
2023-09-03T07:09:38.067Z,8.47
2023-09-03T07:10:38.077Z,9.28
2023-09-03T07:11:37.961Z,9.27
2023-09-03T07:12:37.943Z,10.99
2023-09-03T07:13:37.899Z,14.21
2023-09-03T07:14:37.855Z,12.40
2023-09-03T07:15:38.014Z,16.63
2023-09-03T07:16:37.841Z,18.44
2023-09-03T07:17:37.797Z,19.15
2023-09-03T07:18:37.756Z,17.93
2023-09-03T07:19:37.712Z,17.63
2023-09-03T07:20:37.722Z,18.53
2023-09-03T07:21:37.750Z,19.13
2023-09-03T07:22:37.730Z,21.04
2023-09-03T07:23:37.534Z,24.16
2023-09-03T07:24:37.497Z,25.48
2023-09-03T07:25:37.465Z,25.87
2023-09-03T07:26:37.461Z,32.01
2023-09-03T07:27:37.405Z,36.44
2023-09-03T07:28:37.360Z,33.92
2023-09-03T07:29:37.322Z,30.80
2023-09-03T07:30:37.328Z,31.10
2023-09-03T07:31:37.242Z,30.70
2023-09-03T07:32:37.241Z,31.40
2023-09-03T07:33:37.201Z,31.82
2023-09-03T07:34:37.149Z,29.29
2023-09-03T07:35:37.120Z,29.90
2023-09-03T07:36:37.083Z,31.91
2023-09-03T07:37:37.026Z,33.72
2023-09-03T07:38:36.996Z,33.40
2023-09-03T07:39:36.974Z,38.93
2023-09-03T07:40:36.925Z,36.44
2023-09-03T07:41:36.887Z,37.65
2023-09-03T07:42:36.859Z,37.04
2023-09-03T07:43:36.837Z,36.24
2023-09-03T07:44:36.782Z,36.33
2023-09-03T07:45:36.751Z,36.62
2023-09-03T07:46:36.829Z,36.92
2023-09-03T07:47:36.727Z,38.33
2023-09-03T07:48:36.686Z,37.30
2023-09-03T07:49:36.614Z,40.22
2023-09-03T07:50:36.573Z,42.33
2023-09-03T07:51:36.560Z,42.13
2023-09-03T07:52:36.515Z,41.43
2023-09-03T07:53:36.476Z,42.21
2023-09-03T07:54:36.442Z,46.72
2023-09-03T07:55:36.427Z,49.63
2023-09-03T07:56:36.378Z,50.03
2023-09-03T07:57:36.356Z,53.32
2023-09-03T07:58:36.298Z,56.10
2023-09-03T07:59:36.272Z,59.36
2023-09-03T08:00:36.255Z,60.84
2023-09-03T08:01:36.203Z,65.48
2023-09-03T08:02:36.171Z,66.22
2023-09-03T08:03:36.208Z,76.09
2023-09-03T08:04:36.102Z,79.22
2023-09-03T08:05:36.052Z,80.47
2023-09-03T08:06:36.021Z,84.29
2023-09-03T08:07:36.003Z,89.94
2023-09-03T08:08:35.996Z,90.77
2023-09-03T08:09:35.939Z,91.47
2023-09-03T08:10:35.889Z,94.37
2023-09-03T08:11:35.856Z,93.17
2023-09-03T08:12:35.808Z,96.11
2023-09-03T08:13:36.761Z,97.27
2023-09-03T08:14:35.811Z,96.07
2023-09-03T08:15:44.315Z,96.47
2023-09-03T08:16:35.716Z,96.12
2023-09-03T08:17:35.655Z,95.53
2023-09-03T08:18:35.624Z,97.32
2023-09-03T08:19:35.592Z,97.32
2023-09-03T08:20:35.555Z,99.96
2023-09-03T08:21:36.037Z,99.76
2023-09-03T08:22:35.487Z,99.16
2023-09-03T08:23:35.462Z,98.36
2023-09-03T08:24:35.425Z,99.21
2023-09-03T08:25:35.398Z,99.66
2023-09-03T08:26:35.393Z,99.32
2023-09-03T08:27:35.338Z,99.99
2023-09-03T08:28:35.310Z,99.99
2023-09-03T08:29:35.277Z,99.99
2023-09-03T08:30:35.255Z,99.87
2023-09-03T08:31:35.264Z,99.99
2023-09-03T08:32:35.223Z,99.62
2023-09-03T08:33:35.140Z,99.87
2023-09-03T08:34:35.122Z,98.38
2023-09-03T08:35:35.108Z,94.10
2023-09-03T08:36:35.049Z,94.89
2023-09-03T08:37:35.057Z,94.84
2023-09-03T08:38:34.985Z,99.32
2023-09-03T08:39:34.968Z,99.87
2023-09-03T08:40:34.922Z,99.02
2023-09-03T08:41:34.913Z,97.53
2023-09-03T08:42:34.886Z,93.16
2023-09-03T08:43:34.844Z,96.94
2023-09-03T08:44:34.850Z,97.09
2023-09-03T08:45:34.818Z,94.37
2023-09-03T08:46:34.749Z,91.88
2023-09-03T08:47:34.748Z,84.94
2023-09-03T08:48:34.687Z,89.59
2023-09-03T08:49:34.649Z,91.18
2023-09-03T08:50:34.647Z,94.85
2023-09-03T08:51:34.598Z,94.76
2023-09-03T08:52:34.550Z,89.86
2023-09-03T08:53:34.547Z,84.56
2023-09-03T08:54:34.487Z,87.87
2023-09-03T08:55:34.457Z,84.50
2023-09-03T08:56:34.463Z,86.09
2023-09-03T08:57:34.402Z,87.53
2023-09-03T08:58:34.372Z,87.53
2023-09-03T08:59:34.337Z,91.70
2023-09-03T09:00:34.388Z,82.28
2023-09-03T09:01:34.468Z,79.64
2023-09-03T09:02:34.321Z,75.27
2023-09-03T09:03:34.337Z,81.03
2023-09-03T09:04:34.193Z,80.00
2023-09-03T09:05:35.722Z,78.97
2023-09-03T09:06:34.133Z,76.16
2023-09-03T09:07:34.100Z,76.45
2023-09-03T09:08:34.077Z,77.74
2023-09-03T09:09:34.028Z,75.96
2023-09-03T09:10:34.076Z,75.92
2023-09-03T09:11:33.981Z,79.98
2023-09-03T09:12:33.945Z,74.04
2023-09-03T09:13:33.920Z,75.56
2023-09-03T09:14:33.895Z,73.98
2023-09-03T09:15:33.901Z,81.03
2023-09-03T09:16:33.823Z,78.16
2023-09-03T09:17:33.833Z,80.33
2023-09-03T09:18:33.770Z,84.86
2023-09-03T09:19:33.742Z,77.92
2023-09-03T09:20:33.728Z,76.14
2023-09-03T09:21:33.700Z,75.93
2023-09-03T09:22:33.636Z,75.08
2023-09-03T09:23:33.628Z,74.25
2023-09-03T09:24:43.558Z,75.31
2023-09-03T09:25:43.584Z,73.09
2023-09-03T09:26:42.623Z,73.32
2023-09-03T09:27:35.153Z,71.23
2023-09-03T09:28:33.495Z,70.18
2023-09-03T09:29:33.435Z,69.79
2023-09-03T09:30:33.411Z,70.78
2023-09-03T09:31:33.409Z,69.69
2023-09-03T09:32:33.364Z,70.45
2023-09-03T09:33:33.342Z,67.94
2023-09-03T09:34:33.335Z,66.39
2023-09-03T09:35:33.308Z,66.16
2023-09-03T09:36:33.252Z,64.48
2023-09-03T09:37:33.204Z,64.58
2023-09-03T09:38:33.183Z,64.22
2023-09-03T09:39:33.162Z,66.88
2023-09-03T09:40:33.142Z,66.62
2023-09-03T09:41:33.096Z,68.57
2023-09-03T09:42:33.058Z,66.00
2023-09-03T09:43:33.049Z,66.19
2023-09-03T09:44:33.006Z,68.46
2023-09-03T09:45:33.008Z,65.97
2023-09-03T09:46:33.148Z,65.97
2023-09-03T09:47:32.935Z,65.30
2023-09-03T09:48:32.877Z,63.79
2023-09-03T09:49:32.861Z,63.16
2023-09-03T09:50:32.822Z,67.11
2023-09-03T09:51:32.812Z,67.38
2023-09-03T09:52:32.776Z,65.70
2023-09-03T09:53:32.753Z,65.70
2023-09-03T09:54:32.714Z,69.46
2023-09-03T09:55:32.704Z,67.61
2023-09-03T09:56:32.689Z,67.80
2023-09-03T09:57:32.637Z,67.87
2023-09-03T09:58:32.596Z,69.06
2023-09-03T09:59:32.579Z,68.43
2023-09-03T10:00:32.641Z,69.12
2023-09-03T10:01:32.512Z,68.63
2023-09-03T10:02:32.510Z,68.90
2023-09-03T10:03:32.523Z,65.80
2023-09-03T10:04:32.443Z,64.68
2023-09-03T10:05:32.447Z,62.24
2023-09-03T10:06:32.426Z,65.34
2023-09-03T10:07:32.353Z,63.06
2023-09-03T10:08:32.315Z,63.39
2023-09-03T10:09:32.288Z,64.28
2023-09-03T10:10:32.270Z,64.61
2023-09-03T10:11:32.266Z,66.06
2023-09-03T10:12:32.193Z,63.65
2023-09-03T10:13:32.172Z,64.14
2023-09-03T10:14:32.144Z,66.09
2023-09-03T10:15:32.193Z,65.77
2023-09-03T10:16:33.873Z,63.23
2023-09-03T10:17:32.155Z,62.87
2023-09-03T10:18:32.036Z,63.75
2023-09-03T10:19:32.004Z,62.79
2023-09-03T10:20:32.006Z,59.73
2023-09-03T10:21:52.559Z,62.54
2023-09-03T10:22:31.921Z,61.29
2023-09-03T10:23:31.881Z,58.43
2023-09-03T10:24:31.867Z,60.93
2023-09-03T10:25:31.829Z,61.29
2023-09-03T10:26:31.826Z,63.42
2023-09-03T10:27:31.784Z,63.42
2023-09-03T10:28:31.831Z,62.69
2023-09-03T10:29:31.789Z,62.76
2023-09-03T10:30:31.689Z,63.65
2023-09-03T10:31:31.669Z,62.88
2023-09-03T10:32:31.672Z,63.18
2023-09-03T10:33:31.611Z,63.88
2023-09-03T10:34:31.567Z,63.78
2023-09-03T10:35:31.545Z,64.37
2023-09-03T10:36:31.517Z,65.43
2023-09-03T10:37:31.480Z,65.66
2023-09-03T10:38:31.463Z,58.57
2023-09-03T10:39:31.429Z,59.66
2023-09-03T10:40:31.396Z,59.53
2023-09-03T10:41:31.377Z,59.63
2023-09-03T10:42:31.373Z,58.28
2023-09-03T10:43:31.312Z,59.23
2023-09-03T10:44:31.308Z,60.52
2023-09-03T10:45:31.258Z,58.91
2023-09-03T10:46:31.248Z,59.50
2023-09-03T10:47:31.251Z,57.70
2023-09-03T10:48:31.164Z,58.12
2023-09-03T10:49:39.893Z,59.50
2023-09-03T10:50:31.132Z,59.67
2023-09-03T10:51:31.156Z,58.56
2023-09-03T10:52:31.050Z,59.94
2023-09-03T10:53:31.090Z,59.97
2023-09-03T10:54:30.993Z,59.94
2023-09-03T10:55:30.971Z,60.33
2023-09-03T10:56:30.925Z,59.15
2023-09-03T10:57:30.926Z,59.74
2023-09-03T10:58:30.881Z,57.30
2023-09-03T10:59:30.845Z,59.27
2023-09-03T11:00:30.817Z,58.47
2023-09-03T11:01:30.817Z,60.78
2023-09-03T11:02:30.807Z,61.10
2023-09-03T11:03:30.790Z,63.78
2023-09-03T11:04:30.734Z,62.39
2023-09-03T11:05:30.669Z,63.92
2023-09-03T11:06:30.634Z,61.37
2023-09-03T11:07:30.605Z,62.53
2023-09-03T11:08:30.644Z,59.23
2023-09-03T11:09:30.556Z,59.93
2023-09-03T11:10:30.516Z,59.46
2023-09-03T11:11:31.705Z,61.15
2023-09-03T11:12:30.464Z,58.67
2023-09-03T11:13:39.166Z,59.27
2023-09-03T11:14:30.420Z,61.15
2023-09-03T11:15:30.412Z,59.41
2023-09-03T11:16:30.354Z,59.63
2023-09-03T11:17:30.374Z,58.84
2023-09-03T11:18:30.307Z,59.73
2023-09-03T11:19:30.267Z,61.11
2023-09-03T11:20:43.664Z,61.05
2023-09-03T11:21:30.211Z,60.06
2023-09-03T11:22:30.202Z,60.92
2023-09-03T11:23:31.925Z,59.93
2023-09-03T11:24:30.620Z,61.48
2023-09-03T11:25:30.085Z,59.50
2023-09-03T11:26:30.061Z,59.31
2023-09-03T11:27:30.045Z,60.07
2023-09-03T11:28:30.019Z,59.28
2023-09-03T11:29:29.976Z,57.03
2023-09-03T11:30:29.945Z,59.70
2023-09-03T11:31:30.010Z,59.87
2023-09-03T11:32:30.027Z,60.66
2023-09-03T11:33:29.861Z,58.00
2023-09-03T11:34:29.827Z,57.73
2023-09-03T11:35:29.807Z,58.22
2023-09-03T11:36:29.774Z,57.46
2023-09-03T11:37:29.759Z,58.34
2023-09-03T11:38:29.716Z,58.84
2023-09-03T11:39:29.697Z,59.63
2023-09-03T11:40:29.665Z,59.14
2023-09-03T11:41:29.630Z,59.53
2023-09-03T11:42:29.636Z,60.25
2023-09-03T11:43:29.577Z,59.79
2023-09-03T11:44:29.543Z,61.27
2023-09-03T11:45:29.513Z,60.88
2023-09-03T11:46:29.508Z,61.15
2023-09-03T11:47:29.460Z,62.76
2023-09-03T11:48:29.437Z,63.32
2023-09-03T11:49:29.405Z,62.73
2023-09-03T11:50:29.363Z,64.54
2023-09-03T11:51:29.846Z,64.70
2023-09-03T11:52:29.300Z,64.90
2023-09-03T11:53:29.291Z,63.91
2023-09-03T11:54:29.262Z,62.62
2023-09-03T11:55:29.240Z,61.83
2023-09-03T11:56:29.192Z,62.39
2023-09-03T11:57:29.155Z,59.72
2023-09-03T11:58:29.128Z,60.97
2023-09-03T11:59:29.100Z,59.59
2023-09-03T12:00:29.090Z,60.28
2023-09-03T12:01:29.078Z,59.69
2023-09-03T12:02:29.010Z,57.54
2023-09-03T12:03:29.127Z,58.56
2023-09-03T12:04:28.962Z,60.44
2023-09-03T12:05:28.922Z,62.23
2023-09-03T12:06:28.882Z,62.42
2023-09-03T12:07:28.856Z,64.07
2023-09-03T12:08:28.836Z,64.90
2023-09-03T12:09:28.807Z,65.49
2023-09-03T12:10:28.910Z,64.60
2023-09-03T12:11:28.738Z,65.66
2023-09-03T12:12:28.723Z,65.53
2023-09-03T12:13:28.676Z,64.17
2023-09-03T12:14:28.648Z,62.88
2023-09-03T12:15:28.614Z,63.85
2023-09-03T12:16:28.682Z,64.44
2023-09-03T12:17:28.691Z,64.97
2023-09-03T12:18:28.552Z,63.28
2023-09-03T12:19:28.536Z,63.81
2023-09-03T12:20:28.480Z,64.43
2023-09-03T12:21:28.463Z,66.68
2023-09-03T12:22:28.409Z,65.12
2023-09-03T12:23:28.389Z,65.42
2023-09-03T12:24:28.346Z,65.52
2023-09-03T12:25:28.310Z,67.11
2023-09-03T12:26:28.281Z,66.58
2023-09-03T12:27:28.266Z,67.38
2023-09-03T12:28:28.221Z,67.38
2023-09-03T12:29:41.814Z,68.73
2023-09-03T12:30:28.197Z,68.73
2023-09-03T12:31:28.158Z,66.45
2023-09-03T12:32:28.130Z,65.95
2023-09-03T12:33:28.067Z,63.37
2023-09-03T12:34:28.038Z,63.01
2023-09-03T12:35:28.010Z,63.37
2023-09-03T12:36:27.990Z,67.14
2023-09-03T12:37:27.956Z,64.56
2023-09-03T12:38:29.883Z,64.07
2023-09-03T12:39:27.880Z,63.67
2023-09-03T12:40:27.849Z,63.70
2023-09-03T12:41:27.824Z,64.70
2023-09-03T12:42:27.844Z,64.10
2023-09-03T12:43:27.758Z,64.50
2023-09-03T12:44:27.724Z,63.80
2023-09-03T12:45:27.694Z,64.33
2023-09-03T12:46:27.696Z,64.10
2023-09-03T12:47:27.688Z,65.29
2023-09-03T12:48:27.615Z,64.20
2023-09-03T12:49:27.572Z,64.40
2023-09-03T12:50:36.801Z,64.89
2023-09-03T12:51:38.421Z,65.02
2023-09-03T12:52:36.899Z,64.43
2023-09-03T12:53:36.406Z,64.33
2023-09-03T12:54:36.937Z,64.06
2023-09-03T12:55:27.389Z,63.76
2023-09-03T12:56:36.008Z,66.25
2023-09-03T12:57:36.031Z,65.85
2023-09-03T12:58:36.518Z,64.36
2023-09-03T12:59:27.296Z,65.06
2023-09-03T13:00:36.588Z,66.44
2023-09-03T13:01:27.291Z,64.09
2023-09-03T13:02:36.605Z,64.98
2023-09-03T13:03:27.459Z,66.28
2023-09-03T13:04:27.091Z,66.28
2023-09-03T13:05:27.114Z,64.95